Flight Track Log - Related Links

Times and Time Zones

All times are in EDT time to prevent confusion due to time zone crossing. See the AAL2345 flight status page for this flight to view local times or setup timezone preferences in your user account.

Time Position Orientation Groundspeed Altitude Reporting Facility
EDT Latitude Longitude Course Direction KTS MPH feet Rate Location/Type
Wed 06:58:49 PM 41.8833 -87.9000 207° Southwest 208 239 3,200  Level Chicago TRACON
Wed 07:00:00 PM 41.7287 -88.2058 201° Southwest  Level Estimated
Wed 07:00:09 PM 41.8081 -87.8931 176° South 239 275 5,700  Level Chicago Center
Wed 07:01:00 PM 41.6442 -88.3049 197° South  Level Estimated
Wed 07:01:11 PM 41.7375 -87.9419 207° Southwest 284 327 8,200  Level Chicago Center
Wed 07:02:00 PM 41.5458 -88.2325 151° Southeast  Level FlightAware Approximate
Wed 07:02:13 PM 41.6508 -88.0044 208° Southwest 298 343 11,200  Level Chicago Center
Wed 07:03:00 PM 41.4619 -88.3324 207° Southwest  Level Estimated
Wed 07:03:15 PM 41.5756 -88.0578 208° Southwest 307 353 12,900  Level Chicago Center
Wed 07:04:18 PM 41.4886 -88.1206 208° Southwest 352 405 14,000 1,533 Climbing Chicago Center
Wed 07:05:32 PM 41.3494 -88.2061 205° Southwest 414 476 16,400 1,897 Climbing Chicago Center
Wed 07:06:34 PM 41.2392 -88.2539 198° South 422 486 18,300 1,887 Climbing Chicago Center
Wed 07:07:36 PM 41.1269 -88.3058 199° South 429 494 20,300 1,790 Climbing Chicago Center
Wed 07:08:38 PM 41.0131 -88.3572 199° South 436 502 22,000 1,645 Climbing Chicago Center
Wed 07:09:40 PM 40.8733 -88.4197 199° South 443 510 23,700 1,344 Climbing Chicago Center
Wed 07:10:43 PM 40.7539 -88.4722 198° South 453 521 24,800 1,008 Climbing Chicago Center
Wed 07:11:45 PM 40.6381 -88.5417 204° Southwest 475 547 25,800 1,210 Climbing Chicago Center
Wed 07:12:47 PM 40.5356 -88.6431 217° Southwest 466 536 27,300 1,403 Climbing Chicago Center
Wed 07:13:49 PM 40.4281 -88.7333 213° Southwest 471 542 28,700 1,452 Climbing Chicago Center
Wed 07:14:51 PM 40.2992 -88.8497 215° Southwest 468 539 30,300 1,452 Climbing Chicago Center
Wed 07:15:53 PM 40.1925 -88.9467 215° Southwest 467 537 31,700 823 Climbing Chicago Center
Wed 07:16:55 PM 40.0928 -89.0358 214° Southwest 439 505 32,000 145 Climbing Chicago Center
Wed 07:17:57 PM 39.9886 -89.1264 214° Southwest 444 511 32,000  Level Chicago Center
Wed 07:18:36 PM 39.9247 -89.1872 216° Southwest 452 520 32,000  Level Kansas City Center
Wed 07:19:38 PM 39.8206 -89.2794 214° Southwest 452 520 32,000  Level Kansas City Center
Wed 07:20:41 PM 39.7247 -89.3839 220° Southwest 447 514 32,000  Level Kansas City Center
Wed 07:21:42 PM 39.6153 -89.5214 224° Southwest 453 521 32,000  Level Kansas City Center
Wed 07:22:45 PM 39.5222 -89.6372 224° Southwest 458 527 32,000  Level Kansas City Center
Wed 07:23:46 PM 39.4317 -89.7486 224° Southwest 453 521 32,000  Level Kansas City Center
Wed 07:24:49 PM 39.3386 -89.8600 223° Southwest 454 522 32,000  Level Kansas City Center
Wed 07:25:51 PM 39.2433 -89.9742 223° Southwest 458 527 32,000  Level Kansas City Center
Wed 07:26:51 PM 39.1503 -90.0844 223° Southwest 455 524 32,000  Level Kansas City Center
Wed 07:27:55 PM 39.0572 -90.1967 223° Southwest 461 531 32,000  Level Kansas City Center
Wed 07:28:56 PM 38.9489 -90.3294 224° Southwest 456 525 32,000  Level Kansas City Center
Wed 07:29:59 PM 38.8586 -90.4381 223° Southwest 455 524 32,000  Level Kansas City Center
Wed 07:31:00 PM 38.7644 -90.5475 222° Southwest 455 524 32,000 49 Level Kansas City Center
Wed 07:32:01 PM 38.6669 -90.6581 222° Southwest 459 528 32,100  Climbing Kansas City Center
Wed 07:33:05 PM 38.5594 -90.7850 223° Southwest 454 522 32,000 -48 Descending Kansas City Center
Wed 07:34:05 PM 38.4667 -90.8933 222° Southwest 455 524 32,000  Level Kansas City Center
Wed 07:35:06 PM 38.3728 -91.0042 223° Southwest 466 536 32,000  Level Kansas City Center
Wed 07:36:10 PM 38.2789 -91.1108 222° Southwest 455 524 32,000  Level Kansas City Center
Wed 07:37:11 PM 38.1853 -91.2178 222° Southwest 455 524 32,000  Level Kansas City Center
Wed 07:38:14 PM 38.0828 -91.3347 222° Southwest 455 524 32,000  Level Kansas City Center
Wed 07:39:15 PM 37.9881 -91.4439 222° Southwest 456 525 32,000  Level Kansas City Center
Wed 07:40:16 PM 37.8939 -91.5522 222° Southwest 455 524 32,000  Level Kansas City Center
Wed 07:41:19 PM 37.7983 -91.6614 222° Southwest 458 527 32,000  Level Kansas City Center
Wed 07:42:20 PM 37.7044 -91.7689 222° Southwest 455 524 32,000  Level Kansas City Center
Wed 07:43:23 PM 37.5908 -91.8972 222° Southwest 453 521 32,000  Level Kansas City Center
Wed 07:44:24 PM 37.4950 -92.0061 222° Southwest 456 525 32,000  Level Kansas City Center
Wed 07:45:27 PM 37.4022 -92.1106 222° Southwest 449 517 32,000  Level Kansas City Center
Wed 07:46:28 PM 37.3072 -92.2164 222° Southwest 451 519 32,000  Level Kansas City Center
Wed 07:47:32 PM 37.2117 -92.3233 222° Southwest 455 524 32,000  Level Kansas City Center
Wed 07:48:32 PM 37.1150 -92.4300 221° Southwest 459 528 32,000  Level Kansas City Center
Wed 07:49:33 PM 37.0181 -92.5361 221° Southwest 460 529 32,000  Level Kansas City Center
Wed 07:50:37 PM 36.9197 -92.6436 221° Southwest 465 535 32,000  Level Kansas City Center
Wed 07:51:36 PM 36.8022 -92.7706 221° Southwest 465 535 32,000  Level Kansas City Center
Wed 07:52:40 PM 36.7036 -92.8753 220° Southwest 464 534 32,000  Level Kansas City Center
Wed 07:53:40 PM 36.6061 -92.9828 222° Southwest 465 535 32,000  Level Kansas City Center
Wed 07:54:44 PM 36.5017 -93.0939 221° Southwest 463 533 32,000  Level Kansas City Center
Wed 07:55:45 PM 36.4039 -93.1978 221° Southwest 464 534 32,000  Level Kansas City Center
Wed 07:56:46 PM 36.3061 -93.3061 222° Southwest 469 540 32,000  Level Kansas City Center
Wed 07:57:50 PM 36.2072 -93.4111 221° Southwest 472 543 32,000  Level Kansas City Center
Wed 07:58:51 PM 36.1094 -93.5142 220° Southwest 467 537 32,000  Level Kansas City Center
Wed 07:59:52 PM 36.0111 -93.6192 221° Southwest 468 539 32,000  Level Kansas City Center
Wed 08:00:56 PM 35.8919 -93.7464 221° Southwest 473 544 32,000  Level Kansas City Center
Wed 08:02:14 PM 35.7628 -93.8825 221° Southwest 473 544 32,000  Level Memphis Center
Wed 08:03:14 PM 35.6639 -93.9856 220° Southwest 473 544 32,000  Level Memphis Center
Wed 08:04:14 PM 35.5497 -94.1031 220° Southwest 478 550 32,000  Level Memphis Center
Wed 08:05:14 PM 35.4506 -94.2081 221° Southwest 478 550 32,000  Level Memphis Center
Wed 08:06:14 PM 35.3494 -94.3128 220° Southwest 478 550 32,000  Level Memphis Center
Wed 08:07:14 PM 35.2519 -94.4203 222° Southwest 478 550 32,000  Level Memphis Center
Wed 08:08:51 PM 35.0931 -94.5919 221° Southwest 481 554 32,000  Level Fort Worth Center
Wed 08:09:51 PM 35.0033 -94.6886 221° Southwest 481 554 32,000  Level Fort Worth Center
Wed 08:10:51 PM 34.9036 -94.7983 222° Southwest 481 554 32,000  Level Fort Worth Center
Wed 08:11:51 PM 34.8036 -94.9100 223° Southwest 481 554 32,000  Level Fort Worth Center
Wed 08:12:51 PM 34.7075 -95.0114 221° Southwest 479 551 32,000  Level Fort Worth Center
Wed 08:13:51 PM 34.6031 -95.1203 221° Southwest 479 551 32,000  Level Fort Worth Center
Wed 08:14:51 PM 34.5050 -95.2286 222° Southwest 479 551 32,000  Level Fort Worth Center
Wed 08:15:51 PM 34.4064 -95.3319 221° Southwest 479 551 32,000  Level Fort Worth Center
Wed 08:16:51 PM 34.3081 -95.4347 221° Southwest 479 551 32,000  Level Fort Worth Center
Wed 08:17:51 PM 34.2114 -95.5350 221° Southwest 479 551 32,000 -850 Level Fort Worth Center
Wed 08:18:51 PM 34.1044 -95.6428 220° Southwest 473 544 30,300 -2,100 Descending Fort Worth Center
Wed 08:19:51 PM 34.0203 -95.7344 222° Southwest 459 528 27,800 -2,650 Descending Fort Worth Center
Wed 08:20:51 PM 33.9236 -95.8392 222° Southwest 459 528 25,000 -3,050 Descending Fort Worth Center
Wed 08:21:51 PM 33.8142 -95.9486 220° Southwest 464 534 21,700 -2,900 Descending Fort Worth Center
Wed 08:22:51 PM 33.7297 -96.0397 222° Southwest 464 534 19,200 -2,600 Descending Fort Worth Center
Wed 08:23:51 PM 33.6306 -96.1386 220° Southwest 440 506 16,500 -2,400 Descending Fort Worth Center
Wed 08:24:51 PM 33.5542 -96.2194 221° Southwest 416 479 14,400 -2,150 Descending Fort Worth Center
Wed 08:25:51 PM 33.4736 -96.3153 225° Southwest 387 445 12,200 -1,700 Descending Fort Worth Center
Wed 08:26:51 PM 33.4136 -96.3831 223° Southwest 348 400 11,000 -1,300 Descending Fort Worth Center
Wed 08:27:51 PM 33.3494 -96.4636 226° Southwest 318 366 9,600 -1,400 Descending Fort Worth Center
Wed 08:28:51 PM 33.2958 -96.5261 224° Southwest 302 348 8,200 -1,450 Descending Fort Worth Center
Wed 08:29:51 PM 33.2589 -96.6111 243° Southwest 297 342 6,700 -1,450 Descending Fort Worth Center
Wed 08:30:51 PM 33.2217 -96.7058 245° Southwest 286 329 5,300 -850 Descending Fort Worth Center
Wed 08:31:51 PM 33.1931 -96.7806 245° Southwest 281 323 5,000 -350 Descending Fort Worth Center
Wed 08:32:51 PM 33.1411 -96.8603 232° Southwest 281 323 4,600 -879 Descending Fort Worth Center
Wed 08:33:47 PM 33.1000 -96.9167 229° Southwest 276 318 3,300 -879 Descending Dallas / Fort Worth TRACON
Wed 08:34:47 PM 33.0500 -96.9833 228° Southwest 228 262 2,900 -450 Descending Dallas / Fort Worth TRACON
Wed 08:35:47 PM 33.0000 -97.0000 196° South 184 212 2,400 -500 Descending Dallas / Fort Worth TRACON

Login

Don't have an account? Register now (free) for customized features, flight alerts, and more!